Aviation Digital Data Service (ADDS)

Output produced by METARs form (2242 UTC 26 March 2017)
found at http://bcaws.aviationweather.gov/adds/metars/
 
METAR text: KPAO 262147Z 09008KT 10SM OVC040 17/07 A3010
Conditions at: KPAO (PALO ALTO , CA, US) observed 2147 UTC 26 March 2017
Temperature: 17.0°C (63°F)
Dewpoint: 7.0°C (45°F) [RH = 52%]
Pressure (altimeter): 30.10 inches Hg (1019.4 mb)
Winds: from the E (90 degrees) at 9 MPH (8 knots; 4.2 m/s)
Visibility: 10 or more miles (16+ km)
Ceiling: 4000 feet AGL
Clouds: overcast cloud deck at 4000 feet AGL
Weather: no significant weather observed at this time